createdAt,value
2022-11-13T00:02:21.250Z,5.30
2022-11-13T00:05:44.599Z,4.80
2022-11-13T00:09:05.769Z,5.65
2022-11-13T00:12:26.688Z,4.68
2022-11-13T00:15:57.293Z,5.65
2022-11-13T00:19:18.449Z,5.68
2022-11-13T00:22:40.877Z,5.57
2022-11-13T00:26:04.673Z,5.85
2022-11-13T00:29:25.568Z,5.63
2022-11-13T00:32:46.595Z,5.28
2022-11-13T00:36:09.129Z,5.57
2022-11-13T00:39:31.396Z,5.85
2022-11-13T00:42:52.370Z,5.57
2022-11-13T00:46:13.822Z,4.97
2022-11-13T00:49:34.831Z,5.78
2022-11-13T00:52:56.770Z,5.35
2022-11-13T00:56:19.521Z,5.32
2022-11-13T00:59:40.628Z,4.97
2022-11-13T01:03:02.274Z,5.85
2022-11-13T01:06:25.279Z,5.18
2022-11-13T01:09:50.065Z,5.10
2022-11-13T01:13:12.692Z,5.57
2022-11-13T01:16:34.048Z,6.20
2022-11-13T01:19:55.226Z,6.80
2022-11-13T01:23:16.186Z,6.28
2022-11-13T01:26:38.333Z,6.75
2022-11-13T01:30:11.109Z,5.38
2022-11-13T01:33:33.373Z,6.32
2022-11-13T01:36:54.553Z,5.82
2022-11-13T01:40:16.113Z,6.55
2022-11-13T01:43:38.730Z,5.97
2022-11-13T01:47:28.835Z,6.05
2022-11-13T01:50:51.176Z,5.57
2022-11-13T01:54:14.461Z,5.45
2022-11-13T01:57:35.692Z,6.22
2022-11-13T02:00:57.310Z,5.78
2022-11-13T02:04:18.695Z,5.32
2022-11-13T02:07:41.308Z,5.78
2022-11-13T02:11:02.534Z,5.75
2022-11-13T02:14:26.346Z,5.90
2022-11-13T02:17:48.914Z,6.13
2022-11-13T02:21:15.206Z,5.38
2022-11-13T02:24:44.799Z,5.50
2022-11-13T02:28:06.699Z,5.50
2022-11-13T02:31:27.752Z,6.35
2022-11-13T02:34:48.752Z,6.13
2022-11-13T02:38:10.217Z,6.53
2022-11-13T02:41:32.514Z,5.82
2022-11-13T02:44:53.899Z,6.28
2022-11-13T02:48:15.197Z,5.53
2022-11-13T02:51:36.479Z,6.40
2022-11-13T02:54:57.826Z,5.93
2022-11-13T02:58:20.357Z,5.22
2022-11-13T03:01:41.408Z,6.18
2022-11-13T03:05:12.069Z,6.75
2022-11-13T03:08:35.024Z,6.63
2022-11-13T03:11:57.140Z,6.43
2022-11-13T03:15:19.817Z,6.47
2022-11-13T03:18:40.988Z,5.40
2022-11-13T03:22:01.857Z,6.55
2022-11-13T03:25:23.201Z,6.53
2022-11-13T03:28:44.573Z,6.07
2022-11-13T03:32:07.335Z,6.45
2022-11-13T03:35:31.846Z,5.93
2022-11-13T03:38:57.175Z,6.30
2022-11-13T03:42:18.234Z,6.22
2022-11-13T03:45:39.539Z,6.40
2022-11-13T03:49:02.140Z,5.95
2022-11-13T03:52:23.414Z,6.60
2022-11-13T03:55:44.460Z,6.45
2022-11-13T03:59:05.713Z,6.18
2022-11-13T04:02:26.780Z,6.63
2022-11-13T04:05:50.693Z,7.13
2022-11-13T04:09:12.004Z,7.03
2022-11-13T04:12:32.852Z,6.68
2022-11-13T04:15:53.975Z,6.90
2022-11-13T04:19:15.933Z,5.65
2022-11-13T04:22:38.417Z,6.25
2022-11-13T04:25:59.333Z,6.10
2022-11-13T04:29:20.521Z,6.20
2022-11-13T04:32:41.588Z,6.95
2022-11-13T04:36:02.856Z,6.40
2022-11-13T04:39:25.498Z,6.68
2022-11-13T04:42:52.290Z,6.55
2022-11-13T04:46:13.309Z,6.72
2022-11-13T04:49:34.571Z,6.82
2022-11-13T04:52:55.805Z,6.88
2022-11-13T04:56:18.270Z,6.05
2022-11-13T04:59:39.190Z,6.20
2022-11-13T05:03:00.278Z,6.65
2022-11-13T05:06:22.492Z,6.55
2022-11-13T05:09:45.590Z,5.93
2022-11-13T05:13:08.057Z,5.93
2022-11-13T05:16:29.560Z,6.85
2022-11-13T05:19:50.832Z,6.63
2022-11-13T05:23:12.060Z,6.60
2022-11-13T05:26:33.359Z,6.82
2022-11-13T05:29:55.681Z,6.57
2022-11-13T05:33:16.904Z,6.75
2022-11-13T05:36:38.234Z,7.15
2022-11-13T05:39:59.186Z,6.93
2022-11-13T05:43:20.490Z,6.70
2022-11-13T05:46:43.111Z,7.28
2022-11-13T05:50:04.651Z,7.53
2022-11-13T05:53:25.789Z,7.30
2022-11-13T05:56:47.114Z,6.93
2022-11-13T06:00:08.934Z,6.38
2022-11-13T06:03:31.549Z,7.10
2022-11-13T06:06:53.340Z,6.65
2022-11-13T06:10:14.162Z,6.47
2022-11-13T06:13:35.833Z,6.85
2022-11-13T06:16:56.918Z,5.53
2022-11-13T06:20:19.632Z,6.45
2022-11-13T06:23:41.188Z,6.50
2022-11-13T06:27:02.508Z,6.60
2022-11-13T06:30:23.876Z,6.25
2022-11-13T06:33:45.424Z,5.68
2022-11-13T06:37:07.993Z,5.45
2022-11-13T06:40:29.229Z,5.47
2022-11-13T06:43:50.500Z,5.38
2022-11-13T06:47:11.738Z,5.57
2022-11-13T06:50:36.073Z,5.03
2022-11-13T06:53:59.161Z,5.88
2022-11-13T06:57:34.098Z,5.72
2022-11-13T07:00:57.350Z,6.10
2022-11-13T07:04:18.517Z,5.57
2022-11-13T07:11:18.052Z,5.10
2022-11-13T07:14:39.343Z,4.97
2022-11-13T07:18:01.308Z,6.13
2022-11-13T07:21:23.050Z,5.40
2022-11-13T07:24:44.090Z,5.93
2022-11-13T07:28:06.529Z,5.60
2022-11-13T07:31:27.629Z,5.80
2022-11-13T07:34:48.619Z,5.78
2022-11-13T07:38:10.995Z,6.07
2022-11-13T07:41:32.068Z,4.95
2022-11-13T07:45:00.714Z,4.80
2022-11-13T07:48:22.453Z,5.07
2022-11-13T07:51:43.740Z,4.78
2022-11-13T07:55:05.305Z,5.28
2022-11-13T07:58:26.658Z,5.22
2022-11-13T08:01:58.925Z,5.70
2022-11-13T08:05:20.520Z,5.25
2022-11-13T08:08:41.769Z,5.88
2022-11-13T08:12:03.025Z,5.70
2022-11-13T08:15:24.229Z,4.07
2022-11-13T08:18:46.468Z,6.22
2022-11-13T08:22:07.649Z,4.80
2022-11-13T08:25:29.036Z,6.18
2022-11-13T08:28:50.413Z,5.82
2022-11-13T08:32:15.024Z,5.40
2022-11-13T08:35:37.520Z,7.07
2022-11-13T08:38:58.642Z,6.18
2022-11-13T08:42:19.735Z,6.50
2022-11-13T08:45:41.132Z,7.43
2022-11-13T08:49:02.109Z,8.15
2022-11-13T08:52:24.710Z,8.35
2022-11-13T08:55:46.060Z,7.03
2022-11-13T08:59:07.477Z,6.85
2022-11-13T09:02:29.105Z,7.55
2022-11-13T09:05:50.226Z,8.38
2022-11-13T09:09:13.005Z,8.23
2022-11-13T09:12:34.305Z,9.10
2022-11-13T09:15:56.335Z,8.60
2022-11-13T09:19:17.494Z,6.05
2022-11-13T09:22:39.019Z,8.27
2022-11-13T09:26:03.542Z,8.38
2022-11-13T09:29:27.030Z,8.32
2022-11-13T09:32:48.558Z,7.60
2022-11-13T09:36:14.197Z,8.13
2022-11-13T09:39:35.600Z,9.07
2022-11-13T09:42:58.424Z,7.80
2022-11-13T09:46:21.947Z,7.72
2022-11-13T09:49:45.438Z,7.15
2022-11-13T09:53:06.734Z,6.55
2022-11-13T09:56:30.484Z,7.30
2022-11-13T09:59:55.664Z,7.85
2022-11-13T10:03:54.039Z,7.40
2022-11-13T10:07:18.680Z,7.50
2022-11-13T10:10:55.261Z,5.75
2022-11-13T10:14:19.270Z,5.90
2022-11-13T10:17:42.984Z,5.72
2022-11-13T10:21:09.825Z,6.70
2022-11-13T10:24:37.969Z,5.88
2022-11-13T10:28:04.558Z,5.97
2022-11-13T10:31:43.868Z,5.90
2022-11-13T10:35:18.962Z,5.35
2022-11-13T10:38:42.841Z,5.28
2022-11-13T10:42:04.721Z,5.53
2022-11-13T10:45:26.291Z,4.38
2022-11-13T10:48:48.059Z,4.75
2022-11-13T10:52:20.097Z,5.35
2022-11-13T10:55:42.370Z,5.60
2022-11-13T10:59:04.435Z,4.45
2022-11-13T11:02:26.543Z,5.10
2022-11-13T11:05:54.359Z,4.93
2022-11-13T11:09:19.976Z,5.63
2022-11-13T11:12:42.853Z,5.40
2022-11-13T11:16:04.675Z,3.63
2022-11-13T11:19:27.648Z,4.90
2022-11-13T11:22:52.089Z,4.72
2022-11-13T11:26:17.290Z,5.03
2022-11-13T11:29:40.263Z,3.92
2022-11-13T11:33:05.994Z,5.03
2022-11-13T11:36:31.553Z,4.85
2022-11-13T11:39:55.255Z,4.32
2022-11-13T11:43:21.350Z,4.78
2022-11-13T11:46:46.542Z,4.57
2022-11-13T11:50:13.089Z,3.88
2022-11-13T11:53:37.503Z,4.55
2022-11-13T11:57:00.192Z,4.25
2022-11-13T12:00:23.167Z,5.82
2022-11-13T12:03:55.367Z,4.70
2022-11-13T12:07:23.298Z,4.57
2022-11-13T12:10:47.727Z,4.05
2022-11-13T12:14:14.757Z,4.70
2022-11-13T12:17:44.661Z,4.30
2022-11-13T12:21:10.815Z,4.50
2022-11-13T12:24:42.724Z,4.80
2022-11-13T12:28:07.802Z,4.55
2022-11-13T12:31:39.198Z,4.63
2022-11-13T12:35:04.843Z,5.00
2022-11-13T12:38:33.267Z,4.68
2022-11-13T12:41:56.605Z,4.43
2022-11-13T12:45:21.210Z,4.55
2022-11-13T12:48:43.002Z,5.88
2022-11-13T12:52:06.743Z,5.40
2022-11-13T12:55:29.191Z,5.85
2022-11-13T12:59:23.764Z,6.97
2022-11-13T13:02:55.250Z,6.35
2022-11-13T13:06:22.440Z,6.95
2022-11-13T13:09:51.126Z,6.80
2022-11-13T13:13:23.672Z,6.60
2022-11-13T13:16:46.145Z,7.60
2022-11-13T13:20:28.018Z,8.20
2022-11-13T13:23:50.583Z,7.82
2022-11-13T13:27:27.266Z,8.77
2022-11-13T13:30:54.204Z,7.85
2022-11-13T13:34:21.474Z,8.55
2022-11-13T13:37:45.466Z,8.32
2022-11-13T13:41:13.427Z,7.88
2022-11-13T13:44:43.567Z,7.75
2022-11-13T13:48:10.609Z,7.68
2022-11-13T13:51:33.678Z,7.65
2022-11-13T13:54:55.686Z,7.32
2022-11-13T13:58:18.329Z,8.57
2022-11-13T14:01:39.829Z,6.53
2022-11-13T14:05:02.712Z,7.28
2022-11-13T14:08:25.892Z,6.85
2022-11-13T14:11:47.766Z,6.53
2022-11-13T14:15:21.865Z,6.15
2022-11-13T14:18:43.173Z,5.07
2022-11-13T14:22:07.284Z,4.30
2022-11-13T14:25:29.969Z,5.55
2022-11-13T14:28:53.861Z,5.03
2022-11-13T14:32:17.226Z,4.00
2022-11-13T14:35:40.215Z,4.05
2022-11-13T14:39:03.249Z,3.33
2022-11-13T14:42:28.655Z,3.92
2022-11-13T14:45:54.541Z,3.75
2022-11-13T14:49:16.145Z,3.40
2022-11-13T14:52:37.697Z,3.42
2022-11-13T14:56:01.311Z,3.17
2022-11-13T14:59:26.375Z,3.08
2022-11-13T15:02:48.063Z,3.05
2022-11-13T15:06:11.947Z,3.38
2022-11-13T15:09:33.458Z,2.90
2022-11-13T15:12:56.074Z,3.05
2022-11-13T15:16:20.035Z,4.03
2022-11-13T15:19:41.197Z,8.38
2022-11-13T15:23:02.873Z,2.65
2022-11-13T15:26:37.757Z,3.13
2022-11-13T15:30:01.074Z,3.10
2022-11-13T15:33:22.902Z,2.75
2022-11-13T15:36:45.952Z,2.85
2022-11-13T15:40:07.783Z,2.53
2022-11-13T15:43:30.296Z,2.72
2022-11-13T15:46:53.666Z,3.05
2022-11-13T15:50:16.051Z,2.90
2022-11-13T15:53:38.143Z,2.83
2022-11-13T15:56:59.362Z,3.15
2022-11-13T16:00:24.755Z,2.80
2022-11-13T16:03:48.301Z,2.38
2022-11-13T16:07:13.187Z,2.78
2022-11-13T16:10:34.396Z,2.70
2022-11-13T16:13:55.827Z,2.22
2022-11-13T16:17:20.288Z,3.13
2022-11-13T16:20:43.265Z,2.42
2022-11-13T16:24:05.290Z,3.22
2022-11-13T16:27:27.771Z,3.17
2022-11-13T16:30:49.650Z,2.45
2022-11-13T16:34:11.198Z,2.30
2022-11-13T16:37:34.476Z,2.75
2022-11-13T16:40:55.892Z,2.63
2022-11-13T16:44:17.222Z,2.00
2022-11-13T16:47:39.017Z,2.83
2022-11-13T16:51:00.167Z,2.38
2022-11-13T16:54:22.663Z,1.60
2022-11-13T16:57:44.553Z,2.28
2022-11-13T17:01:06.172Z,1.98
2022-11-13T17:04:27.519Z,1.98
2022-11-13T17:07:50.767Z,2.25
2022-11-13T17:11:14.884Z,2.17
2022-11-13T17:14:37.641Z,2.20
2022-11-13T17:17:59.137Z,2.08
2022-11-13T17:21:21.594Z,1.92
2022-11-13T17:24:42.641Z,1.90
2022-11-13T17:28:05.464Z,1.73
2022-11-13T17:31:26.923Z,2.45
2022-11-13T17:34:48.450Z,2.00
2022-11-13T17:38:13.634Z,2.50
2022-11-13T17:41:35.134Z,2.60
2022-11-13T17:44:57.915Z,2.00
2022-11-13T17:48:19.429Z,2.10
2022-11-13T17:51:40.846Z,2.20
2022-11-13T17:55:05.743Z,1.98
2022-11-13T17:58:27.807Z,2.55
2022-11-13T18:01:50.423Z,2.13
2022-11-13T18:05:11.509Z,2.70
2022-11-13T18:08:33.084Z,2.70
2022-11-13T18:11:54.426Z,2.45
2022-11-13T18:15:15.793Z,2.35
2022-11-13T18:18:38.447Z,2.40
2022-11-13T18:22:00.246Z,3.08
2022-11-13T18:25:21.352Z,2.45
2022-11-13T18:28:43.136Z,2.88
2022-11-13T18:32:04.660Z,2.72
2022-11-13T18:35:27.191Z,2.58
2022-11-13T18:38:48.521Z,2.65
2022-11-13T18:42:10.379Z,3.10
2022-11-13T18:45:31.478Z,3.05
2022-11-13T18:48:52.684Z,4.00
2022-11-13T18:52:15.323Z,3.22
2022-11-13T18:55:36.592Z,3.28
2022-11-13T18:58:58.296Z,4.00
2022-11-13T19:02:19.537Z,3.30
2022-11-13T19:05:43.738Z,3.88
2022-11-13T19:09:07.716Z,3.95
2022-11-13T19:12:28.754Z,3.45
2022-11-13T19:15:50.742Z,4.10
2022-11-13T19:19:15.410Z,5.00
2022-11-13T19:22:36.544Z,4.90
2022-11-13T19:25:59.260Z,4.88
2022-11-13T19:29:20.790Z,4.93
2022-11-13T19:32:41.724Z,4.70
2022-11-13T19:36:07.046Z,4.90
2022-11-13T19:39:28.114Z,5.57
2022-11-13T19:42:50.989Z,5.55
2022-11-13T19:46:14.231Z,4.93
2022-11-13T19:49:39.267Z,5.03
2022-11-13T19:53:00.357Z,6.05
2022-11-13T19:56:22.076Z,5.40
2022-11-13T19:59:46.941Z,4.93
2022-11-13T20:03:08.454Z,5.75
2022-11-13T20:06:31.652Z,5.68
2022-11-13T20:09:53.035Z,6.40
2022-11-13T20:13:14.154Z,6.50
2022-11-13T20:16:36.870Z,6.43
2022-11-13T20:19:58.242Z,6.30
2022-11-13T20:23:19.406Z,6.65
2022-11-13T20:26:40.745Z,6.55
2022-11-13T20:30:02.103Z,6.25
2022-11-13T20:33:25.046Z,7.22
2022-11-13T20:36:46.509Z,7.63
2022-11-13T20:40:08.587Z,6.63
2022-11-13T20:43:29.761Z,6.63
2022-11-13T20:46:51.146Z,7.18
2022-11-13T20:50:13.910Z,6.47
2022-11-13T20:53:35.734Z,6.82
2022-11-13T20:56:56.862Z,7.45
2022-11-13T21:00:18.298Z,7.47
2022-11-13T21:03:41.314Z,7.38
2022-11-13T21:07:04.295Z,5.80
2022-11-13T21:10:25.439Z,7.15
2022-11-13T21:13:48.877Z,7.57
2022-11-13T21:17:10.040Z,7.55
2022-11-13T21:20:31.267Z,8.48
2022-11-13T21:23:56.257Z,7.70
2022-11-13T21:27:17.737Z,8.63
2022-11-13T21:30:38.935Z,7.95
2022-11-13T21:34:00.918Z,8.88
2022-11-13T21:37:22.287Z,7.82
2022-11-13T21:41:05.383Z,8.20
2022-11-13T21:44:26.810Z,8.20
2022-11-13T21:47:48.151Z,8.90
2022-11-13T21:51:10.259Z,8.07
2022-11-13T21:54:32.626Z,8.18
2022-11-13T21:57:55.100Z,8.77
2022-11-13T22:01:16.425Z,8.02
2022-11-13T22:04:37.876Z,8.73
2022-11-13T22:07:59.099Z,9.35
2022-11-13T22:11:20.619Z,8.48
2022-11-13T22:14:43.356Z,8.27
2022-11-13T22:18:04.678Z,8.40
2022-11-13T22:21:27.799Z,6.80
2022-11-13T22:24:49.039Z,9.02
2022-11-13T22:28:10.501Z,9.05
2022-11-13T22:31:33.764Z,8.77
2022-11-13T22:34:54.898Z,9.70
2022-11-13T22:38:16.651Z,9.38
2022-11-13T22:41:37.767Z,8.95
2022-11-13T22:44:58.979Z,8.77
2022-11-13T22:48:21.692Z,9.38
2022-11-13T22:51:43.113Z,9.75
2022-11-13T22:55:04.821Z,9.20
2022-11-13T22:58:26.320Z,9.15
2022-11-13T23:01:47.706Z,10.10
2022-11-13T23:05:10.221Z,9.40
2022-11-13T23:08:31.846Z,9.02
2022-11-13T23:11:53.875Z,9.48
2022-11-13T23:15:15.035Z,9.73
2022-11-13T23:18:36.001Z,9.50
2022-11-13T23:21:58.717Z,10.38
2022-11-13T23:25:19.886Z,8.50
2022-11-13T23:28:41.345Z,9.15
2022-11-13T23:32:02.543Z,9.45
2022-11-13T23:35:23.658Z,9.50
2022-11-13T23:38:46.473Z,9.52
2022-11-13T23:42:07.636Z,9.93
2022-11-13T23:45:29.164Z,10.25
2022-11-13T23:48:50.563Z,9.27
2022-11-13T23:52:11.571Z,10.82
2022-11-13T23:55:34.577Z,11.23
2022-11-13T23:58:55.894Z,10.27
